createdAt,value
2019-03-10T00:00:35.517Z,100254.59
2019-03-10T00:04:39.239Z,100253.50
2019-03-10T00:08:42.847Z,100254.88
2019-03-10T00:12:46.562Z,100242.05
2019-03-10T00:16:50.174Z,100251.20
2019-03-10T00:20:53.887Z,100249.52
2019-03-10T00:24:57.503Z,100250.98
2019-03-10T00:29:01.220Z,100240.47
2019-03-10T00:33:04.933Z,100236.56
2019-03-10T00:37:08.663Z,100233.66
2019-03-10T00:41:27.316Z,100226.30
2019-03-10T00:45:43.011Z,100219.66
2019-03-10T00:50:21.147Z,100224.44
2019-03-10T00:54:24.760Z,100220.42
2019-03-10T00:58:28.365Z,100208.25
2019-03-10T01:02:32.097Z,100211.80
2019-03-10T01:06:36.007Z,100206.17
2019-03-10T01:10:39.819Z,100186.19
2019-03-10T01:14:43.539Z,100192.13
2019-03-10T01:18:48.495Z,100195.14
2019-03-10T01:22:52.206Z,100196.53
2019-03-10T01:26:55.819Z,100185.45
2019-03-10T01:31:02.496Z,100196.48
2019-03-10T01:35:09.183Z,100181.20
2019-03-10T01:39:12.796Z,100184.03
2019-03-10T01:43:16.535Z,100186.66
2019-03-10T01:47:20.230Z,100175.39
2019-03-10T01:51:23.856Z,100162.20
2019-03-10T01:55:27.458Z,100163.66
2019-03-10T01:59:31.171Z,100162.92
2019-03-10T02:03:34.889Z,100158.83
2019-03-10T02:07:38.437Z,100160.20
2019-03-10T02:11:42.017Z,100160.29
2019-03-10T02:15:45.732Z,100149.47
2019-03-10T02:19:50.273Z,100137.82
2019-03-10T02:23:53.877Z,100124.55
2019-03-10T02:27:57.532Z,100117.17
2019-03-10T02:32:01.209Z,100115.27
2019-03-10T02:36:04.926Z,100119.64
2019-03-10T02:40:09.100Z,100116.54
2019-03-10T02:44:12.781Z,100110.45
2019-03-10T02:48:16.484Z,100110.45
2019-03-10T02:52:20.104Z,100103.70
2019-03-10T02:56:23.624Z,100089.79
2019-03-10T03:00:27.222Z,100088.89
2019-03-10T03:04:31.000Z,100068.25
2019-03-10T03:08:34.662Z,100060.71
2019-03-10T03:12:38.423Z,100060.27
2019-03-10T03:16:42.296Z,100059.26
2019-03-10T03:20:45.908Z,100066.53
2019-03-10T03:24:49.537Z,100075.80
2019-03-10T03:28:53.134Z,100078.80
2019-03-10T03:32:56.748Z,100077.70
2019-03-10T03:37:00.368Z,100074.49
2019-03-10T03:41:24.355Z,100062.84
2019-03-10T03:45:27.967Z,100058.11
2019-03-10T03:49:31.681Z,100054.57
2019-03-10T03:53:35.600Z,100064.77
2019-03-10T03:57:39.216Z,100063.69
2019-03-10T04:01:44.396Z,100057.43
2019-03-10T04:05:47.979Z,100055.61
2019-03-10T04:09:51.594Z,100048.17
2019-03-10T04:13:55.312Z,100053.08
2019-03-10T04:17:58.923Z,100055.62
2019-03-10T04:22:02.547Z,100055.09
2019-03-10T04:26:06.354Z,100048.55
2019-03-10T04:30:12.169Z,100052.55
2019-03-10T04:34:15.850Z,100042.73
2019-03-10T04:38:19.579Z,100035.00
2019-03-10T04:42:23.195Z,100039.83
2019-03-10T04:46:26.893Z,100027.83
2019-03-10T04:50:30.498Z,100018.19
2019-03-10T04:54:41.593Z,100005.83
2019-03-10T04:58:46.938Z,100003.20
2019-03-10T05:02:50.623Z,99999.75
2019-03-10T05:06:54.267Z,99991.20
2019-03-10T05:10:57.885Z,99993.20
2019-03-10T05:15:01.613Z,99985.39
2019-03-10T05:19:05.208Z,99986.40
2019-03-10T05:23:30.020Z,100002.75
2019-03-10T05:27:33.633Z,99990.22
2019-03-10T05:31:37.351Z,99990.22
2019-03-10T05:35:41.066Z,99985.40
2019-03-10T05:39:44.679Z,99983.13
2019-03-10T05:43:48.297Z,99968.59
2019-03-10T05:47:51.911Z,99963.78
2019-03-10T05:51:55.632Z,99965.50
2019-03-10T05:55:59.345Z,99951.79
2019-03-10T06:00:03.056Z,99948.88
2019-03-10T06:04:06.670Z,99946.96
2019-03-10T06:08:10.309Z,99953.48
2019-03-10T06:12:13.905Z,99946.27
2019-03-10T06:16:17.715Z,99933.82
2019-03-10T06:20:21.329Z,99925.63
2019-03-10T06:24:24.946Z,99911.61
2019-03-10T06:28:28.556Z,99909.06
2019-03-10T06:32:32.170Z,99906.62
2019-03-10T06:36:35.784Z,99914.16
2019-03-10T06:40:39.399Z,99901.57
2019-03-10T06:44:42.974Z,99897.66
2019-03-10T06:48:46.628Z,99894.44
2019-03-10T06:52:50.344Z,99878.09
2019-03-10T06:56:54.136Z,99879.13
2019-03-10T07:00:57.773Z,99866.52
2019-03-10T07:05:01.428Z,99850.73
2019-03-10T07:09:05.749Z,99832.94
2019-03-10T07:13:09.685Z,99833.48
2019-03-10T07:17:13.388Z,99827.50
2019-03-10T07:21:16.973Z,99825.75
2019-03-10T07:25:20.686Z,99825.80
2019-03-10T07:29:28.805Z,99810.51
2019-03-10T07:33:45.846Z,99799.85
2019-03-10T07:37:51.095Z,99793.66
2019-03-10T07:42:08.755Z,99786.47
2019-03-10T07:46:19.817Z,99763.84
2019-03-10T07:50:25.210Z,99764.68
2019-03-10T07:54:30.424Z,99763.61
2019-03-10T07:58:41.433Z,99771.22
2019-03-10T08:02:49.318Z,99767.20
2019-03-10T08:07:10.840Z,99768.36
2019-03-10T08:11:16.110Z,99775.59
2019-03-10T08:15:21.351Z,99770.80
2019-03-10T08:19:38.496Z,99755.70
2019-03-10T08:23:43.751Z,99739.34
2019-03-10T08:28:02.078Z,99732.10
2019-03-10T08:32:07.473Z,99736.59
2019-03-10T08:36:13.915Z,99726.77
2019-03-10T08:40:19.301Z,99726.22
2019-03-10T08:44:30.078Z,99713.38
2019-03-10T08:48:37.993Z,99701.12
2019-03-10T08:52:51.957Z,99705.53
2019-03-10T08:57:09.597Z,99685.91
2019-03-10T09:01:14.892Z,99682.09
2019-03-10T09:05:32.250Z,99689.17
2019-03-10T09:09:52.485Z,99684.33
2019-03-10T09:13:57.840Z,99681.20
2019-03-10T09:18:14.670Z,99681.17
2019-03-10T09:22:28.825Z,99675.54
2019-03-10T09:26:37.050Z,99676.77
2019-03-10T09:30:42.301Z,99660.11
2019-03-10T09:35:03.019Z,99656.76
2019-03-10T09:39:11.751Z,99652.31
2019-03-10T09:43:29.185Z,99639.03
2019-03-10T09:47:34.381Z,99636.00
2019-03-10T09:51:55.872Z,99628.10
2019-03-10T09:56:06.091Z,99625.75
2019-03-10T10:00:16.297Z,99612.66
2019-03-10T10:04:21.777Z,99604.48
2019-03-10T10:08:42.177Z,99597.99
2019-03-10T10:12:59.514Z,99587.50
2019-03-10T10:17:04.862Z,99582.73
2019-03-10T10:21:13.289Z,99574.70
2019-03-10T10:25:18.747Z,99566.41
2019-03-10T10:29:29.733Z,99556.34
2019-03-10T10:33:44.199Z,99546.89
2019-03-10T10:37:50.587Z,99533.86
2019-03-10T10:42:02.392Z,99520.55
2019-03-10T10:46:07.753Z,99515.12
2019-03-10T10:50:19.453Z,99520.02
2019-03-10T10:54:39.979Z,99506.79
2019-03-10T10:58:54.214Z,99508.08
2019-03-10T11:03:15.963Z,99495.25
2019-03-10T11:07:22.338Z,99484.52
2019-03-10T11:11:27.592Z,99472.91
2019-03-10T11:15:50.868Z,99471.20
2019-03-10T11:20:04.822Z,99457.03
2019-03-10T11:24:10.072Z,99458.86
2019-03-10T11:28:15.424Z,99454.94
2019-03-10T11:32:23.367Z,99428.30
2019-03-10T11:36:37.193Z,99430.92
2019-03-10T11:40:45.231Z,99434.50
2019-03-10T11:44:53.435Z,99427.95
2019-03-10T11:49:15.784Z,99426.34
2019-03-10T11:53:21.041Z,99417.75
2019-03-10T11:57:26.298Z,99413.66
2019-03-10T12:01:34.100Z,99405.95
2019-03-10T12:05:41.916Z,99404.15
2019-03-10T12:09:45.528Z,99394.23
2019-03-10T12:13:49.143Z,99379.53
2019-03-10T12:17:52.679Z,99367.84
2019-03-10T12:21:56.521Z,99359.41
2019-03-10T12:26:00.199Z,99353.44
2019-03-10T12:30:04.678Z,99346.26
2019-03-10T12:34:08.859Z,99345.22
2019-03-10T12:38:12.465Z,99340.42
2019-03-10T12:42:16.015Z,99345.44
2019-03-10T12:46:19.687Z,99337.77
2019-03-10T12:50:23.509Z,99335.71
2019-03-10T12:54:27.121Z,99311.64
2019-03-10T12:58:30.731Z,99298.00
2019-03-10T13:02:34.456Z,99301.05
2019-03-10T13:06:38.171Z,99263.28
2019-03-10T13:10:41.766Z,99241.63
2019-03-10T13:14:45.260Z,99241.33
2019-03-10T13:18:48.828Z,99255.25
2019-03-10T13:22:52.519Z,99249.25
2019-03-10T13:26:56.236Z,99237.80
2019-03-10T13:30:59.847Z,99230.89
2019-03-10T13:35:03.579Z,99219.47
2019-03-10T13:39:07.795Z,99235.70
2019-03-10T13:43:11.512Z,99239.48
2019-03-10T13:47:15.689Z,99233.62
2019-03-10T13:51:19.362Z,99228.42
2019-03-10T13:55:22.977Z,99233.45
2019-03-10T13:59:28.338Z,99225.53
2019-03-10T14:03:32.040Z,99220.08
2019-03-10T14:07:35.668Z,99212.95
2019-03-10T14:11:39.263Z,99221.03
2019-03-10T14:15:44.430Z,99232.81
2019-03-10T14:19:48.338Z,99222.19
2019-03-10T14:23:52.048Z,99230.03
2019-03-10T14:27:55.764Z,99220.27
2019-03-10T14:31:59.367Z,99218.67
2019-03-10T14:36:03.219Z,99193.66
2019-03-10T14:40:09.886Z,99185.83
2019-03-10T14:44:13.603Z,99169.30
2019-03-10T14:48:17.317Z,99173.79
2019-03-10T14:52:28.574Z,99178.48
2019-03-10T14:56:33.369Z,99186.86
2019-03-10T15:00:38.116Z,99191.00
2019-03-10T15:04:41.730Z,99203.97
2019-03-10T15:08:46.462Z,99191.48
2019-03-10T15:12:51.992Z,99156.87
2019-03-10T15:17:01.639Z,99171.27
2019-03-10T15:21:00.889Z,99174.02
2019-03-10T15:25:06.647Z,99203.33
2019-03-10T15:29:10.592Z,99236.55
2019-03-10T15:33:14.277Z,99243.09
2019-03-10T15:37:17.992Z,99242.49
2019-03-10T15:41:21.713Z,99233.32
2019-03-10T15:45:27.802Z,99215.51
2019-03-10T15:49:31.089Z,99190.10
2019-03-10T15:53:34.704Z,99162.98
2019-03-10T15:57:49.303Z,99130.23
2019-03-10T16:01:43.572Z,99141.61
2019-03-10T16:05:47.278Z,99165.20
2019-03-10T16:09:50.901Z,99172.75
2019-03-10T16:13:54.507Z,99162.84
2019-03-10T16:17:58.222Z,99153.03
2019-03-10T16:22:01.939Z,99175.53
2019-03-10T16:26:05.655Z,99193.23
2019-03-10T16:30:17.995Z,99218.52
2019-03-10T16:34:21.587Z,99256.66
2019-03-10T16:38:25.303Z,99290.23
2019-03-10T16:42:28.920Z,99298.11
2019-03-10T16:46:32.536Z,99302.98
2019-03-10T16:50:36.145Z,99313.85
2019-03-10T16:54:39.671Z,99318.92
2019-03-10T16:58:43.207Z,99322.11
2019-03-10T17:02:46.828Z,99320.13
2019-03-10T17:06:50.495Z,99330.55
2019-03-10T17:10:54.324Z,99339.27
2019-03-10T17:14:58.043Z,99354.41
2019-03-10T17:19:01.643Z,99372.20
2019-03-10T17:23:05.366Z,99386.63
2019-03-10T17:27:08.976Z,99394.50
2019-03-10T17:31:12.589Z,99403.92
2019-03-10T17:35:17.438Z,99416.20
2019-03-10T17:39:21.152Z,99422.70
2019-03-10T17:43:24.779Z,99446.27
2019-03-10T17:47:28.475Z,99454.03
2019-03-10T17:51:32.088Z,99471.38
2019-03-10T17:55:35.705Z,99479.63
2019-03-10T17:59:39.223Z,99486.97
2019-03-10T18:03:42.966Z,99505.51
2019-03-10T18:07:49.821Z,99513.63
2019-03-10T18:11:53.538Z,99511.73
2019-03-10T18:15:57.592Z,99531.93
2019-03-10T18:20:01.174Z,99549.95
2019-03-10T18:24:04.785Z,99566.90
2019-03-10T18:28:08.403Z,99584.66
2019-03-10T18:32:12.118Z,99605.74
2019-03-10T18:36:15.833Z,99624.22
2019-03-10T18:40:22.474Z,99643.05
2019-03-10T18:44:25.986Z,99654.65
2019-03-10T18:48:29.682Z,99663.55
2019-03-10T18:52:33.484Z,99679.31
2019-03-10T18:56:37.077Z,99691.94
2019-03-10T19:00:41.047Z,99700.80
2019-03-10T19:04:44.818Z,99710.48
2019-03-10T19:08:48.429Z,99718.09
2019-03-10T19:12:52.255Z,99729.95
2019-03-10T19:16:55.873Z,99742.55
2019-03-10T19:20:59.590Z,99756.34
2019-03-10T19:25:03.316Z,99768.19
2019-03-10T19:29:07.114Z,99783.12
2019-03-10T19:33:13.802Z,99791.29
2019-03-10T19:37:17.411Z,99798.64
2019-03-10T19:41:21.030Z,99803.80
2019-03-10T19:45:25.409Z,99815.41
2019-03-10T19:49:29.071Z,99825.95
2019-03-10T19:53:32.688Z,99835.59
2019-03-10T19:57:36.404Z,99835.03
2019-03-10T20:01:40.023Z,99842.78
2019-03-10T20:05:43.630Z,99857.80
2019-03-10T20:09:47.246Z,99866.75
2019-03-10T20:13:50.811Z,99874.36
2019-03-10T20:17:55.395Z,99876.45
2019-03-10T20:21:59.110Z,99885.56
2019-03-10T20:26:02.867Z,99887.80
2019-03-10T20:30:09.678Z,99883.09
2019-03-10T20:34:13.331Z,99900.48
2019-03-10T20:38:16.942Z,99916.94
2019-03-10T20:42:20.559Z,99926.63
2019-03-10T20:46:24.277Z,99935.53
2019-03-10T20:50:28.202Z,99949.47
2019-03-10T20:54:31.991Z,99965.06
2019-03-10T20:58:35.740Z,99966.91
2019-03-10T21:02:40.889Z,99985.19
2019-03-10T21:06:44.798Z,99992.97
2019-03-10T21:10:48.620Z,100011.63
2019-03-10T21:14:52.446Z,100017.53
2019-03-10T21:18:56.269Z,100033.73
2019-03-10T21:22:59.974Z,100043.36
2019-03-10T21:27:03.896Z,100051.42
2019-03-10T21:31:07.630Z,100053.80
2019-03-10T21:35:17.640Z,100058.80
2019-03-10T21:39:16.690Z,100072.75
2019-03-10T21:43:20.323Z,100077.45
2019-03-10T21:47:24.012Z,100088.14
2019-03-10T21:51:27.554Z,100081.50
2019-03-10T21:55:31.236Z,100091.20
2019-03-10T21:59:34.955Z,100095.83
2019-03-10T22:03:38.687Z,100091.58
2019-03-10T22:07:42.395Z,100098.58
2019-03-10T22:11:46.002Z,100108.89
2019-03-10T22:15:49.618Z,100119.70
2019-03-10T22:19:53.329Z,100124.41
2019-03-10T22:23:59.546Z,100135.02
2019-03-10T22:28:02.228Z,100130.23
2019-03-10T22:32:05.910Z,100132.98
2019-03-10T22:36:09.533Z,100128.30
2019-03-10T22:40:15.191Z,100133.75
2019-03-10T22:44:18.721Z,100145.09
2019-03-10T22:48:22.309Z,100144.80
2019-03-10T22:52:26.031Z,100153.76
2019-03-10T22:56:29.644Z,100159.03
2019-03-10T23:00:47.179Z,100163.54
2019-03-10T23:04:50.795Z,100160.30
2019-03-10T23:08:54.406Z,100172.03
2019-03-10T23:12:58.128Z,100174.12
2019-03-10T23:17:01.745Z,100180.02
2019-03-10T23:21:05.556Z,100179.95
2019-03-10T23:25:09.625Z,100187.72
2019-03-10T23:29:13.202Z,100185.70
2019-03-10T23:33:16.822Z,100188.02
2019-03-10T23:37:20.424Z,100198.60
2019-03-10T23:41:24.143Z,100192.34
2019-03-10T23:45:27.860Z,100197.57
2019-03-10T23:49:31.593Z,100201.23
2019-03-10T23:53:35.151Z,100195.63
2019-03-10T23:57:38.902Z,100199.44
